<?xml version="1.0" encoding="UTF-8"?><gpx creator="Wikiloc - http://www.wikiloc.com" version="1.1" xmlns="http://www.topografix.com/GPX/1/1" xmlns:xsi="http://www.w3.org/2001/XMLSchema-instance" xsi:schemaLocation="http://www.topografix.com/GPX/1/1 http://www.topografix.com/GPX/1/1/gpx.xsd"><wpt lat="39.527594" lon="-7.053608"><ele>339.0</ele><time>2015-07-07T21:35:19Z</time><name>Membrío</name><cmt></cmt><desc></desc></wpt><trk><name>PR-CC 91 'El Candil' (Membrío)</name><cmt></cmt><desc></desc><trkseg><trkpt lat="39.527572" lon="-7.053670"><ele>338.5</ele><time>2015-01-01T10:00:44Z</time></trkpt><trkpt lat="39.527619" lon="-7.053662"><ele>338.5</ele><time>2015-01-01T10:01:29Z</time></trkpt><trkpt lat="39.527916" lon="-7.054143"><ele>335.6</ele><time>2015-01-01T10:02:13Z</time></trkpt><trkpt lat="39.527858" lon="-7.054429"><ele>334.8</ele><time>2015-01-01T10:02:58Z</time></trkpt><trkpt lat="39.527815" lon="-7.054695"><ele>334.1</ele><time>2015-01-01T10:03:42Z</time></trkpt><trkpt lat="39.527763" lon="-7.054965"><ele>333.2</ele><time>2015-01-01T10:04:27Z</time></trkpt><trkpt lat="39.527859" lon="-7.055212"><ele>331.7</ele><time>2015-01-01T10:05:11Z</time></trkpt><trkpt lat="39.527944" lon="-7.055384"><ele>330.7</ele><time>2015-01-01T10:05:56Z</time></trkpt><trkpt lat="39.528153" lon="-7.055811"><ele>329.8</ele><time>2015-01-01T10:06:40Z</time></trkpt><trkpt lat="39.528358" lon="-7.056250"><ele>329.5</ele><time>2015-01-01T10:07:25Z</time></trkpt><trkpt lat="39.528417" lon="-7.056386"><ele>329.0</ele><time>2015-01-01T10:08:09Z</time></trkpt><trkpt lat="39.528613" lon="-7.056776"><ele>327.6</ele><time>2015-01-01T10:08:54Z</time></trkpt><trkpt lat="39.529286" lon="-7.058030"><ele>327.6</ele><time>2015-01-01T10:09:38Z</time></trkpt><trkpt lat="39.529581" lon="-7.058497"><ele>328.6</ele><time>2015-01-01T10:10:23Z</time></trkpt><trkpt lat="39.529901" lon="-7.058901"><ele>329.0</ele><time>2015-01-01T10:11:07Z</time></trkpt><trkpt lat="39.530115" lon="-7.059073"><ele>329.0</ele><time>2015-01-01T10:11:52Z</time></trkpt><trkpt lat="39.530306" lon="-7.059271"><ele>329.1</ele><time>2015-01-01T10:12:36Z</time></trkpt><trkpt lat="39.530617" lon="-7.059811"><ele>330.4</ele><time>2015-01-01T10:13:21Z</time></trkpt><trkpt lat="39.530739" lon="-7.060115"><ele>330.1</ele><time>2015-01-01T10:14:05Z</time></trkpt><trkpt lat="39.531028" lon="-7.060452"><ele>327.0</ele><time>2015-01-01T10:14:50Z</time></trkpt><trkpt lat="39.531573" lon="-7.060699"><ele>323.0</ele><time>2015-01-01T10:15:34Z</time></trkpt><trkpt lat="39.531896" lon="-7.060857"><ele>321.5</ele><time>2015-01-01T10:16:19Z</time></trkpt><trkpt lat="39.532870" lon="-7.061474"><ele>316.9</ele><time>2015-01-01T10:17:03Z</time></trkpt><trkpt lat="39.533719" lon="-7.061821"><ele>311.6</ele><time>2015-01-01T10:17:48Z</time></trkpt><trkpt lat="39.534287" lon="-7.062163"><ele>312.9</ele><time>2015-01-01T10:18:32Z</time></trkpt><trkpt lat="39.534465" lon="-7.062334"><ele>312.6</ele><time>2015-01-01T10:19:17Z</time></trkpt><trkpt lat="39.534607" lon="-7.062438"><ele>312.2</ele><time>2015-01-01T10:20:01Z</time></trkpt><trkpt lat="39.534719" lon="-7.062534"><ele>311.8</ele><time>2015-01-01T10:20:46Z</time></trkpt><trkpt lat="39.535642" lon="-7.063180"><ele>307.0</ele><time>2015-01-01T10:21:30Z</time></trkpt><trkpt lat="39.536074" lon="-7.063561"><ele>308.8</ele><time>2015-01-01T10:22:15Z</time></trkpt><trkpt lat="39.536072" lon="-7.063747"><ele>307.6</ele><time>2015-01-01T10:22:59Z</time></trkpt><trkpt lat="39.536179" lon="-7.063901"><ele>307.9</ele><time>2015-01-01T10:23:44Z</time></trkpt><trkpt lat="39.536307" lon="-7.064055"><ele>308.6</ele><time>2015-01-01T10:24:28Z</time></trkpt><trkpt lat="39.536549" lon="-7.064534"><ele>308.0</ele><time>2015-01-01T10:25:13Z</time></trkpt><trkpt lat="39.536655" lon="-7.064813"><ele>307.6</ele><time>2015-01-01T10:25:57Z</time></trkpt><trkpt lat="39.536830" lon="-7.065175"><ele>307.5</ele><time>2015-01-01T10:26:42Z</time></trkpt><trkpt lat="39.537075" lon="-7.065499"><ele>306.2</ele><time>2015-01-01T10:27:26Z</time></trkpt><trkpt lat="39.537142" lon="-7.065736"><ele>305.5</ele><time>2015-01-01T10:28:11Z</time></trkpt><trkpt lat="39.537270" lon="-7.066128"><ele>304.8</ele><time>2015-01-01T10:28:55Z</time></trkpt><trkpt lat="39.537425" lon="-7.066502"><ele>304.1</ele><time>2015-01-01T10:29:40Z</time></trkpt><trkpt lat="39.537685" lon="-7.066704"><ele>303.3</ele><time>2015-01-01T10:30:24Z</time></trkpt><trkpt lat="39.537870" lon="-7.066851"><ele>302.4</ele><time>2015-01-01T10:31:09Z</time></trkpt><trkpt lat="39.538037" lon="-7.067006"><ele>300.7</ele><time>2015-01-01T10:31:53Z</time></trkpt><trkpt lat="39.538343" lon="-7.067518"><ele>298.0</ele><time>2015-01-01T10:32:38Z</time></trkpt><trkpt lat="39.538422" lon="-7.067702"><ele>298.0</ele><time>2015-01-01T10:33:22Z</time></trkpt><trkpt lat="39.538418" lon="-7.067757"><ele>298.0</ele><time>2015-01-01T10:34:07Z</time></trkpt><trkpt lat="39.538580" lon="-7.067783"><ele>298.0</ele><time>2015-01-01T10:34:51Z</time></trkpt><trkpt lat="39.539035" lon="-7.068217"><ele>300.2</ele><time>2015-01-01T10:35:36Z</time></trkpt><trkpt lat="39.539231" lon="-7.068361"><ele>302.7</ele><time>2015-01-01T10:36:20Z</time></trkpt><trkpt lat="39.540030" lon="-7.068792"><ele>308.2</ele><time>2015-01-01T10:37:05Z</time></trkpt><trkpt lat="39.540357" lon="-7.069344"><ele>309.7</ele><time>2015-01-01T10:37:49Z</time></trkpt><trkpt lat="39.540963" lon="-7.070136"><ele>311.4</ele><time>2015-01-01T10:38:34Z</time></trkpt><trkpt lat="39.541304" lon="-7.070487"><ele>315.4</ele><time>2015-01-01T10:39:18Z</time></trkpt><trkpt lat="39.541609" lon="-7.070671"><ele>318.4</ele><time>2015-01-01T10:40:03Z</time></trkpt><trkpt lat="39.541983" lon="-7.070794"><ele>321.9</ele><time>2015-01-01T10:40:47Z</time></trkpt><trkpt lat="39.542314" lon="-7.070809"><ele>323.3</ele><time>2015-01-01T10:41:32Z</time></trkpt><trkpt lat="39.542688" lon="-7.070833"><ele>324.7</ele><time>2015-01-01T10:42:16Z</time></trkpt><trkpt lat="39.542928" lon="-7.070885"><ele>324.1</ele><time>2015-01-01T10:43:01Z</time></trkpt><trkpt lat="39.543346" lon="-7.071263"><ele>323.0</ele><time>2015-01-01T10:43:45Z</time></trkpt><trkpt lat="39.543710" lon="-7.071595"><ele>323.8</ele><time>2015-01-01T10:44:30Z</time></trkpt><trkpt lat="39.543913" lon="-7.071768"><ele>323.5</ele><time>2015-01-01T10:45:14Z</time></trkpt><trkpt lat="39.544370" lon="-7.072009"><ele>323.0</ele><time>2015-01-01T10:45:59Z</time></trkpt><trkpt lat="39.544902" lon="-7.072285"><ele>322.5</ele><time>2015-01-01T10:46:43Z</time></trkpt><trkpt lat="39.545311" lon="-7.072512"><ele>322.8</ele><time>2015-01-01T10:47:28Z</time></trkpt><trkpt lat="39.545701" lon="-7.072789"><ele>320.0</ele><time>2015-01-01T10:48:12Z</time></trkpt><trkpt lat="39.546147" lon="-7.073073"><ele>318.0</ele><time>2015-01-01T10:48:57Z</time></trkpt><trkpt lat="39.546633" lon="-7.073156"><ele>316.8</ele><time>2015-01-01T10:49:41Z</time></trkpt><trkpt lat="39.547070" lon="-7.073156"><ele>314.7</ele><time>2015-01-01T10:50:26Z</time></trkpt><trkpt lat="39.547510" lon="-7.073225"><ele>314.3</ele><time>2015-01-01T10:51:10Z</time></trkpt><trkpt lat="39.548050" lon="-7.073326"><ele>318.9</ele><time>2015-01-01T10:51:55Z</time></trkpt><trkpt lat="39.548347" lon="-7.073187"><ele>321.2</ele><time>2015-01-01T10:52:39Z</time></trkpt><trkpt lat="39.548692" lon="-7.072942"><ele>326.0</ele><time>2015-01-01T10:53:24Z</time></trkpt><trkpt lat="39.549027" lon="-7.072773"><ele>329.5</ele><time>2015-01-01T10:54:08Z</time></trkpt><trkpt lat="39.549303" lon="-7.072809"><ele>331.0</ele><time>2015-01-01T10:54:53Z</time></trkpt><trkpt lat="39.549822" lon="-7.073143"><ele>333.4</ele><time>2015-01-01T10:55:37Z</time></trkpt><trkpt lat="39.550255" lon="-7.073475"><ele>334.0</ele><time>2015-01-01T10:56:22Z</time></trkpt><trkpt lat="39.551379" lon="-7.073798"><ele>338.0</ele><time>2015-01-01T10:57:06Z</time></trkpt><trkpt lat="39.552681" lon="-7.074694"><ele>336.2</ele><time>2015-01-01T10:57:51Z</time></trkpt><trkpt lat="39.553296" lon="-7.074948"><ele>335.8</ele><time>2015-01-01T10:58:35Z</time></trkpt><trkpt lat="39.553588" lon="-7.075016"><ele>336.0</ele><time>2015-01-01T10:59:20Z</time></trkpt><trkpt lat="39.554032" lon="-7.075030"><ele>337.1</ele><time>2015-01-01T11:00:04Z</time></trkpt><trkpt lat="39.555300" lon="-7.074990"><ele>340.0</ele><time>2015-01-01T11:00:49Z</time></trkpt><trkpt lat="39.556847" lon="-7.074989"><ele>344.0</ele><time>2015-01-01T11:01:33Z</time></trkpt><trkpt lat="39.558487" lon="-7.075222"><ele>343.6</ele><time>2015-01-01T11:02:18Z</time></trkpt><trkpt lat="39.559278" lon="-7.075488"><ele>344.5</ele><time>2015-01-01T11:03:02Z</time></trkpt><trkpt lat="39.560110" lon="-7.075555"><ele>339.6</ele><time>2015-01-01T11:03:47Z</time></trkpt><trkpt lat="39.561580" lon="-7.075929"><ele>341.1</ele><time>2015-01-01T11:04:31Z</time></trkpt><trkpt lat="39.562202" lon="-7.076482"><ele>344.5</ele><time>2015-01-01T11:05:16Z</time></trkpt><trkpt lat="39.562656" lon="-7.077063"><ele>348.1</ele><time>2015-01-01T11:06:00Z</time></trkpt><trkpt lat="39.563387" lon="-7.077831"><ele>350.0</ele><time>2015-01-01T11:06:45Z</time></trkpt><trkpt lat="39.563886" lon="-7.078231"><ele>351.0</ele><time>2015-01-01T11:07:29Z</time></trkpt><trkpt lat="39.564504" lon="-7.078666"><ele>352.4</ele><time>2015-01-01T11:08:14Z</time></trkpt><trkpt lat="39.565521" lon="-7.079476"><ele>358.8</ele><time>2015-01-01T11:08:58Z</time></trkpt><trkpt lat="39.566075" lon="-7.079815"><ele>359.4</ele><time>2015-01-01T11:09:43Z</time></trkpt><trkpt lat="39.567053" lon="-7.080246"><ele>355.6</ele><time>2015-01-01T11:10:27Z</time></trkpt><trkpt lat="39.568208" lon="-7.081007"><ele>353.1</ele><time>2015-01-01T11:11:12Z</time></trkpt><trkpt lat="39.568745" lon="-7.081362"><ele>355.0</ele><time>2015-01-01T11:11:56Z</time></trkpt><trkpt lat="39.568793" lon="-7.081330"><ele>354.9</ele><time>2015-01-01T11:12:41Z</time></trkpt><trkpt lat="39.569058" lon="-7.081104"><ele>353.4</ele><time>2015-01-01T11:13:25Z</time></trkpt><trkpt lat="39.569778" lon="-7.080646"><ele>351.7</ele><time>2015-01-01T11:14:10Z</time></trkpt><trkpt lat="39.570807" lon="-7.080154"><ele>353.0</ele><time>2015-01-01T11:14:54Z</time></trkpt><trkpt lat="39.571094" lon="-7.079976"><ele>353.0</ele><time>2015-01-01T11:15:39Z</time></trkpt><trkpt lat="39.571455" lon="-7.079570"><ele>352.2</ele><time>2015-01-01T11:16:23Z</time></trkpt><trkpt lat="39.571709" lon="-7.079322"><ele>350.2</ele><time>2015-01-01T11:17:08Z</time></trkpt><trkpt lat="39.572289" lon="-7.078889"><ele>349.8</ele><time>2015-01-01T11:17:52Z</time></trkpt><trkpt lat="39.572782" lon="-7.078363"><ele>347.1</ele><time>2015-01-01T11:18:37Z</time></trkpt><trkpt lat="39.573323" lon="-7.077454"><ele>344.0</ele><time>2015-01-01T11:19:21Z</time></trkpt><trkpt lat="39.573541" lon="-7.077167"><ele>344.7</ele><time>2015-01-01T11:20:06Z</time></trkpt><trkpt lat="39.574195" lon="-7.076486"><ele>346.9</ele><time>2015-01-01T11:20:50Z</time></trkpt><trkpt lat="39.574489" lon="-7.076168"><ele>346.8</ele><time>2015-01-01T11:21:35Z</time></trkpt><trkpt lat="39.574691" lon="-7.076023"><ele>347.3</ele><time>2015-01-01T11:22:19Z</time></trkpt><trkpt lat="39.574778" lon="-7.076123"><ele>347.0</ele><time>2015-01-01T11:23:04Z</time></trkpt><trkpt lat="39.574883" lon="-7.076210"><ele>346.6</ele><time>2015-01-01T11:23:48Z</time></trkpt><trkpt lat="39.575048" lon="-7.076348"><ele>346.1</ele><time>2015-01-01T11:24:33Z</time></trkpt><trkpt lat="39.575578" lon="-7.076741"><ele>347.2</ele><time>2015-01-01T11:25:17Z</time></trkpt><trkpt lat="39.575923" lon="-7.076974"><ele>347.5</ele><time>2015-01-01T11:26:02Z</time></trkpt><trkpt lat="39.576398" lon="-7.077215"><ele>346.0</ele><time>2015-01-01T11:26:46Z</time></trkpt><trkpt lat="39.577252" lon="-7.078076"><ele>344.9</ele><time>2015-01-01T11:27:31Z</time></trkpt><trkpt lat="39.577980" lon="-7.078639"><ele>341.5</ele><time>2015-01-01T11:28:15Z</time></trkpt><trkpt lat="39.578362" lon="-7.078960"><ele>340.3</ele><time>2015-01-01T11:29:00Z</time></trkpt><trkpt lat="39.578935" lon="-7.079297"><ele>340.8</ele><time>2015-01-01T11:29:44Z</time></trkpt><trkpt lat="39.579352" lon="-7.079733"><ele>339.3</ele><time>2015-01-01T11:30:29Z</time></trkpt><trkpt lat="39.579520" lon="-7.079831"><ele>338.9</ele><time>2015-01-01T11:31:13Z</time></trkpt><trkpt lat="39.579873" lon="-7.079908"><ele>337.2</ele><time>2015-01-01T11:31:58Z</time></trkpt><trkpt lat="39.580029" lon="-7.079939"><ele>336.1</ele><time>2015-01-01T11:32:42Z</time></trkpt><trkpt lat="39.580137" lon="-7.079942"><ele>335.6</ele><time>2015-01-01T11:33:27Z</time></trkpt><trkpt lat="39.580288" lon="-7.079967"><ele>335.0</ele><time>2015-01-01T11:34:11Z</time></trkpt><trkpt lat="39.580597" lon="-7.079955"><ele>334.2</ele><time>2015-01-01T11:34:56Z</time></trkpt><trkpt lat="39.580837" lon="-7.079902"><ele>334.4</ele><time>2015-01-01T11:35:40Z</time></trkpt><trkpt lat="39.580957" lon="-7.079829"><ele>334.8</ele><time>2015-01-01T11:36:25Z</time></trkpt><trkpt lat="39.581063" lon="-7.079712"><ele>335.0</ele><time>2015-01-01T11:37:09Z</time></trkpt><trkpt lat="39.581157" lon="-7.079529"><ele>334.4</ele><time>2015-01-01T11:37:54Z</time></trkpt><trkpt lat="39.581243" lon="-7.079276"><ele>334.5</ele><time>2015-01-01T11:38:38Z</time></trkpt><trkpt lat="39.581802" lon="-7.078771"><ele>333.5</ele><time>2015-01-01T11:39:23Z</time></trkpt><trkpt lat="39.582141" lon="-7.078281"><ele>333.2</ele><time>2015-01-01T11:40:07Z</time></trkpt><trkpt lat="39.582501" lon="-7.077833"><ele>334.8</ele><time>2015-01-01T11:40:52Z</time></trkpt><trkpt lat="39.582673" lon="-7.077491"><ele>334.4</ele><time>2015-01-01T11:41:36Z</time></trkpt><trkpt lat="39.582801" lon="-7.077205"><ele>334.0</ele><time>2015-01-01T11:42:21Z</time></trkpt><trkpt lat="39.583166" lon="-7.076895"><ele>332.6</ele><time>2015-01-01T11:43:05Z</time></trkpt><trkpt lat="39.583391" lon="-7.076706"><ele>332.0</ele><time>2015-01-01T11:43:50Z</time></trkpt><trkpt lat="39.583594" lon="-7.076328"><ele>332.3</ele><time>2015-01-01T11:44:34Z</time></trkpt><trkpt lat="39.583927" lon="-7.075235"><ele>336.1</ele><time>2015-01-01T11:45:19Z</time></trkpt><trkpt lat="39.584064" lon="-7.074844"><ele>336.9</ele><time>2015-01-01T11:46:03Z</time></trkpt><trkpt lat="39.584183" lon="-7.074555"><ele>337.0</ele><time>2015-01-01T11:46:48Z</time></trkpt><trkpt lat="39.584360" lon="-7.074316"><ele>337.1</ele><time>2015-01-01T11:47:32Z</time></trkpt><trkpt lat="39.584595" lon="-7.073860"><ele>337.1</ele><time>2015-01-01T11:48:17Z</time></trkpt><trkpt lat="39.585095" lon="-7.073040"><ele>338.0</ele><time>2015-01-01T11:49:01Z</time></trkpt><trkpt lat="39.585790" lon="-7.071601"><ele>336.3</ele><time>2015-01-01T11:49:46Z</time></trkpt><trkpt lat="39.585971" lon="-7.071216"><ele>335.5</ele><time>2015-01-01T11:50:30Z</time></trkpt><trkpt lat="39.586011" lon="-7.071105"><ele>335.4</ele><time>2015-01-01T11:51:15Z</time></trkpt><trkpt lat="39.585911" lon="-7.071055"><ele>335.7</ele><time>2015-01-01T11:51:59Z</time></trkpt><trkpt lat="39.585630" lon="-7.070912"><ele>336.7</ele><time>2015-01-01T11:52:44Z</time></trkpt><trkpt lat="39.585419" lon="-7.070813"><ele>337.5</ele><time>2015-01-01T11:53:28Z</time></trkpt><trkpt lat="39.585035" lon="-7.070631"><ele>338.2</ele><time>2015-01-01T11:54:13Z</time></trkpt><trkpt lat="39.584435" lon="-7.070301"><ele>338.0</ele><time>2015-01-01T11:54:57Z</time></trkpt><trkpt lat="39.584168" lon="-7.070121"><ele>338.6</ele><time>2015-01-01T11:55:42Z</time></trkpt><trkpt lat="39.584047" lon="-7.070034"><ele>338.9</ele><time>2015-01-01T11:56:26Z</time></trkpt><trkpt lat="39.583667" lon="-7.069904"><ele>339.8</ele><time>2015-01-01T11:57:11Z</time></trkpt><trkpt lat="39.583462" lon="-7.069831"><ele>340.5</ele><time>2015-01-01T11:57:55Z</time></trkpt><trkpt lat="39.582860" lon="-7.069607"><ele>342.7</ele><time>2015-01-01T11:58:40Z</time></trkpt><trkpt lat="39.582565" lon="-7.069477"><ele>343.8</ele><time>2015-01-01T11:59:24Z</time></trkpt><trkpt lat="39.582146" lon="-7.069454"><ele>346.3</ele><time>2015-01-01T12:00:09Z</time></trkpt><trkpt lat="39.581911" lon="-7.069420"><ele>347.1</ele><time>2015-01-01T12:00:53Z</time></trkpt><trkpt lat="39.582107" lon="-7.069323"><ele>346.4</ele><time>2015-01-01T12:01:38Z</time></trkpt><trkpt lat="39.582335" lon="-7.069198"><ele>344.8</ele><time>2015-01-01T12:02:22Z</time></trkpt><trkpt lat="39.582480" lon="-7.069107"><ele>343.4</ele><time>2015-01-01T12:03:07Z</time></trkpt><trkpt lat="39.582834" lon="-7.068864"><ele>343.1</ele><time>2015-01-01T12:03:51Z</time></trkpt><trkpt lat="39.583109" lon="-7.068612"><ele>343.8</ele><time>2015-01-01T12:04:36Z</time></trkpt><trkpt lat="39.583432" lon="-7.068242"><ele>342.9</ele><time>2015-01-01T12:05:20Z</time></trkpt><trkpt lat="39.583643" lon="-7.068085"><ele>342.0</ele><time>2015-01-01T12:06:05Z</time></trkpt><trkpt lat="39.583912" lon="-7.068002"><ele>342.3</ele><time>2015-01-01T12:06:49Z</time></trkpt><trkpt lat="39.584122" lon="-7.067971"><ele>342.9</ele><time>2015-01-01T12:07:34Z</time></trkpt><trkpt lat="39.585521" lon="-7.067500"><ele>340.1</ele><time>2015-01-01T12:08:18Z</time></trkpt><trkpt lat="39.586147" lon="-7.067066"><ele>339.0</ele><time>2015-01-01T12:09:03Z</time></trkpt><trkpt lat="39.586922" lon="-7.066687"><ele>339.9</ele><time>2015-01-01T12:09:47Z</time></trkpt><trkpt lat="39.587478" lon="-7.066366"><ele>339.9</ele><time>2015-01-01T12:10:32Z</time></trkpt><trkpt lat="39.587908" lon="-7.066083"><ele>340.5</ele><time>2015-01-01T12:11:16Z</time></trkpt><trkpt lat="39.588115" lon="-7.065958"><ele>341.1</ele><time>2015-01-01T12:12:01Z</time></trkpt><trkpt lat="39.588352" lon="-7.065831"><ele>341.1</ele><time>2015-01-01T12:12:45Z</time></trkpt><trkpt lat="39.588541" lon="-7.065697"><ele>341.7</ele><time>2015-01-01T12:13:30Z</time></trkpt><trkpt lat="39.589929" lon="-7.064948"><ele>344.6</ele><time>2015-01-01T12:14:14Z</time></trkpt><trkpt lat="39.590278" lon="-7.064728"><ele>344.0</ele><time>2015-01-01T12:14:59Z</time></trkpt><trkpt lat="39.590844" lon="-7.064281"><ele>345.5</ele><time>2015-01-01T12:15:43Z</time></trkpt><trkpt lat="39.591151" lon="-7.064025"><ele>346.8</ele><time>2015-01-01T12:16:28Z</time></trkpt><trkpt lat="39.591386" lon="-7.063800"><ele>348.0</ele><time>2015-01-01T12:17:12Z</time></trkpt><trkpt lat="39.591523" lon="-7.063552"><ele>348.8</ele><time>2015-01-01T12:17:57Z</time></trkpt><trkpt lat="39.591563" lon="-7.063361"><ele>348.4</ele><time>2015-01-01T12:18:41Z</time></trkpt><trkpt lat="39.591481" lon="-7.063035"><ele>346.6</ele><time>2015-01-01T12:19:26Z</time></trkpt><trkpt lat="39.591397" lon="-7.062552"><ele>346.0</ele><time>2015-01-01T12:20:10Z</time></trkpt><trkpt lat="39.591385" lon="-7.062099"><ele>346.5</ele><time>2015-01-01T12:20:55Z</time></trkpt><trkpt lat="39.591221" lon="-7.061778"><ele>346.0</ele><time>2015-01-01T12:21:39Z</time></trkpt><trkpt lat="39.591131" lon="-7.061501"><ele>346.0</ele><time>2015-01-01T12:22:24Z</time></trkpt><trkpt lat="39.591136" lon="-7.061242"><ele>346.0</ele><time>2015-01-01T12:23:08Z</time></trkpt><trkpt lat="39.591203" lon="-7.060952"><ele>346.0</ele><time>2015-01-01T12:23:53Z</time></trkpt><trkpt lat="39.591180" lon="-7.060647"><ele>345.3</ele><time>2015-01-01T12:24:37Z</time></trkpt><trkpt lat="39.591169" lon="-7.060266"><ele>343.7</ele><time>2015-01-01T12:25:22Z</time></trkpt><trkpt lat="39.591121" lon="-7.059970"><ele>342.7</ele><time>2015-01-01T12:26:06Z</time></trkpt><trkpt lat="39.591098" lon="-7.059628"><ele>340.4</ele><time>2015-01-01T12:26:51Z</time></trkpt><trkpt lat="39.590969" lon="-7.059101"><ele>337.2</ele><time>2015-01-01T12:27:35Z</time></trkpt><trkpt lat="39.590916" lon="-7.058738"><ele>335.5</ele><time>2015-01-01T12:28:20Z</time></trkpt><trkpt lat="39.590622" lon="-7.057986"><ele>332.9</ele><time>2015-01-01T12:29:04Z</time></trkpt><trkpt lat="39.590532" lon="-7.057638"><ele>333.5</ele><time>2015-01-01T12:29:49Z</time></trkpt><trkpt lat="39.590626" lon="-7.057166"><ele>336.4</ele><time>2015-01-01T12:30:33Z</time></trkpt><trkpt lat="39.590745" lon="-7.056854"><ele>338.0</ele><time>2015-01-01T12:31:18Z</time></trkpt><trkpt lat="39.590773" lon="-7.056273"><ele>338.1</ele><time>2015-01-01T12:32:02Z</time></trkpt><trkpt lat="39.590872" lon="-7.055843"><ele>337.9</ele><time>2015-01-01T12:32:47Z</time></trkpt><trkpt lat="39.590975" lon="-7.055546"><ele>335.4</ele><time>2015-01-01T12:33:31Z</time></trkpt><trkpt lat="39.591038" lon="-7.055429"><ele>334.2</ele><time>2015-01-01T12:34:16Z</time></trkpt><trkpt lat="39.591397" lon="-7.054959"><ele>332.7</ele><time>2015-01-01T12:35:00Z</time></trkpt><trkpt lat="39.591625" lon="-7.054507"><ele>331.9</ele><time>2015-01-01T12:35:45Z</time></trkpt><trkpt lat="39.591715" lon="-7.054111"><ele>332.7</ele><time>2015-01-01T12:36:29Z</time></trkpt><trkpt lat="39.591700" lon="-7.053603"><ele>332.2</ele><time>2015-01-01T12:37:14Z</time></trkpt><trkpt lat="39.591795" lon="-7.053250"><ele>331.0</ele><time>2015-01-01T12:37:58Z</time></trkpt><trkpt lat="39.592038" lon="-7.052693"><ele>330.4</ele><time>2015-01-01T12:38:43Z</time></trkpt><trkpt lat="39.592148" lon="-7.052239"><ele>331.5</ele><time>2015-01-01T12:39:27Z</time></trkpt><trkpt lat="39.592345" lon="-7.051732"><ele>330.2</ele><time>2015-01-01T12:40:12Z</time></trkpt><trkpt lat="39.592323" lon="-7.051395"><ele>329.4</ele><time>2015-01-01T12:40:56Z</time></trkpt><trkpt lat="39.592111" lon="-7.050898"><ele>330.4</ele><time>2015-01-01T12:41:41Z</time></trkpt><trkpt lat="39.591894" lon="-7.050589"><ele>330.7</ele><time>2015-01-01T12:42:25Z</time></trkpt><trkpt lat="39.591657" lon="-7.050202"><ele>330.7</ele><time>2015-01-01T12:43:10Z</time></trkpt><trkpt lat="39.591454" lon="-7.049624"><ele>328.6</ele><time>2015-01-01T12:43:54Z</time></trkpt><trkpt lat="39.591259" lon="-7.049253"><ele>328.8</ele><time>2015-01-01T12:44:39Z</time></trkpt><trkpt lat="39.591011" lon="-7.048958"><ele>330.3</ele><time>2015-01-01T12:45:23Z</time></trkpt><trkpt lat="39.590836" lon="-7.048427"><ele>332.0</ele><time>2015-01-01T12:46:08Z</time></trkpt><trkpt lat="39.590584" lon="-7.047962"><ele>333.1</ele><time>2015-01-01T12:46:52Z</time></trkpt><trkpt lat="39.590277" lon="-7.047616"><ele>333.4</ele><time>2015-01-01T12:47:37Z</time></trkpt><trkpt lat="39.590031" lon="-7.047066"><ele>333.2</ele><time>2015-01-01T12:48:21Z</time></trkpt><trkpt lat="39.589835" lon="-7.046830"><ele>332.6</ele><time>2015-01-01T12:49:06Z</time></trkpt><trkpt lat="39.589569" lon="-7.046774"><ele>330.5</ele><time>2015-01-01T12:49:50Z</time></trkpt><trkpt lat="39.589206" lon="-7.046460"><ele>327.2</ele><time>2015-01-01T12:50:35Z</time></trkpt><trkpt lat="39.588729" lon="-7.045851"><ele>324.8</ele><time>2015-01-01T12:51:19Z</time></trkpt><trkpt lat="39.588500" lon="-7.045645"><ele>323.1</ele><time>2015-01-01T12:52:04Z</time></trkpt><trkpt lat="39.588086" lon="-7.045529"><ele>321.9</ele><time>2015-01-01T12:52:48Z</time></trkpt><trkpt lat="39.587808" lon="-7.045487"><ele>322.0</ele><time>2015-01-01T12:53:33Z</time></trkpt><trkpt lat="39.587609" lon="-7.045400"><ele>321.9</ele><time>2015-01-01T12:54:17Z</time></trkpt><trkpt lat="39.587482" lon="-7.045262"><ele>321.0</ele><time>2015-01-01T12:55:02Z</time></trkpt><trkpt lat="39.586908" lon="-7.045280"><ele>320.0</ele><time>2015-01-01T12:55:46Z</time></trkpt><trkpt lat="39.586503" lon="-7.045172"><ele>319.0</ele><time>2015-01-01T12:56:31Z</time></trkpt><trkpt lat="39.586130" lon="-7.044932"><ele>315.6</ele><time>2015-01-01T12:57:15Z</time></trkpt><trkpt lat="39.585649" lon="-7.044710"><ele>310.6</ele><time>2015-01-01T12:58:00Z</time></trkpt><trkpt lat="39.585303" lon="-7.044635"><ele>308.2</ele><time>2015-01-01T12:58:44Z</time></trkpt><trkpt lat="39.584920" lon="-7.044372"><ele>308.3</ele><time>2015-01-01T12:59:29Z</time></trkpt><trkpt lat="39.584607" lon="-7.044226"><ele>308.9</ele><time>2015-01-01T13:00:13Z</time></trkpt><trkpt lat="39.584064" lon="-7.043823"><ele>308.3</ele><time>2015-01-01T13:00:58Z</time></trkpt><trkpt lat="39.583702" lon="-7.043593"><ele>309.4</ele><time>2015-01-01T13:01:42Z</time></trkpt><trkpt lat="39.582983" lon="-7.043452"><ele>309.3</ele><time>2015-01-01T13:02:27Z</time></trkpt><trkpt lat="39.582638" lon="-7.043417"><ele>306.3</ele><time>2015-01-01T13:03:11Z</time></trkpt><trkpt lat="39.582308" lon="-7.043223"><ele>306.1</ele><time>2015-01-01T13:03:56Z</time></trkpt><trkpt lat="39.582046" lon="-7.043184"><ele>307.5</ele><time>2015-01-01T13:04:40Z</time></trkpt><trkpt lat="39.581807" lon="-7.043301"><ele>307.5</ele><time>2015-01-01T13:05:25Z</time></trkpt><trkpt lat="39.581595" lon="-7.043569"><ele>307.0</ele><time>2015-01-01T13:06:09Z</time></trkpt><trkpt lat="39.581505" lon="-7.043670"><ele>306.9</ele><time>2015-01-01T13:06:54Z</time></trkpt><trkpt lat="39.581307" lon="-7.043583"><ele>306.7</ele><time>2015-01-01T13:07:38Z</time></trkpt><trkpt lat="39.581142" lon="-7.043535"><ele>306.4</ele><time>2015-01-01T13:08:23Z</time></trkpt><trkpt lat="39.580988" lon="-7.043598"><ele>306.0</ele><time>2015-01-01T13:09:07Z</time></trkpt><trkpt lat="39.580651" lon="-7.043802"><ele>306.0</ele><time>2015-01-01T13:09:52Z</time></trkpt><trkpt lat="39.580446" lon="-7.043799"><ele>306.6</ele><time>2015-01-01T13:10:36Z</time></trkpt><trkpt lat="39.580344" lon="-7.043764"><ele>306.9</ele><time>2015-01-01T13:11:21Z</time></trkpt><trkpt lat="39.580248" lon="-7.043701"><ele>307.1</ele><time>2015-01-01T13:12:05Z</time></trkpt><trkpt lat="39.580005" lon="-7.043532"><ele>307.7</ele><time>2015-01-01T13:12:50Z</time></trkpt><trkpt lat="39.579758" lon="-7.043347"><ele>306.1</ele><time>2015-01-01T13:13:34Z</time></trkpt><trkpt lat="39.579581" lon="-7.043381"><ele>305.0</ele><time>2015-01-01T13:14:19Z</time></trkpt><trkpt lat="39.579237" lon="-7.043414"><ele>304.5</ele><time>2015-01-01T13:15:03Z</time></trkpt><trkpt lat="39.578903" lon="-7.043342"><ele>305.0</ele><time>2015-01-01T13:15:48Z</time></trkpt><trkpt lat="39.578696" lon="-7.043267"><ele>304.8</ele><time>2015-01-01T13:16:32Z</time></trkpt><trkpt lat="39.578533" lon="-7.043130"><ele>304.3</ele><time>2015-01-01T13:17:17Z</time></trkpt><trkpt lat="39.577943" lon="-7.042845"><ele>304.4</ele><time>2015-01-01T13:18:01Z</time></trkpt><trkpt lat="39.577687" lon="-7.042730"><ele>305.2</ele><time>2015-01-01T13:18:46Z</time></trkpt><trkpt lat="39.577545" lon="-7.042434"><ele>304.8</ele><time>2015-01-01T13:19:30Z</time></trkpt><trkpt lat="39.577444" lon="-7.042196"><ele>305.1</ele><time>2015-01-01T13:20:15Z</time></trkpt><trkpt lat="39.577402" lon="-7.041836"><ele>304.2</ele><time>2015-01-01T13:20:59Z</time></trkpt><trkpt lat="39.577325" lon="-7.041559"><ele>303.0</ele><time>2015-01-01T13:21:44Z</time></trkpt><trkpt lat="39.577103" lon="-7.041233"><ele>301.1</ele><time>2015-01-01T13:22:28Z</time></trkpt><trkpt lat="39.576915" lon="-7.040647"><ele>301.1</ele><time>2015-01-01T13:23:13Z</time></trkpt><trkpt lat="39.576694" lon="-7.040313"><ele>302.8</ele><time>2015-01-01T13:23:57Z</time></trkpt><trkpt lat="39.576559" lon="-7.039819"><ele>302.2</ele><time>2015-01-01T13:24:42Z</time></trkpt><trkpt lat="39.576292" lon="-7.039230"><ele>298.5</ele><time>2015-01-01T13:25:26Z</time></trkpt><trkpt lat="39.576181" lon="-7.038735"><ele>294.7</ele><time>2015-01-01T13:26:11Z</time></trkpt><trkpt lat="39.576046" lon="-7.038447"><ele>293.9</ele><time>2015-01-01T13:26:55Z</time></trkpt><trkpt lat="39.575636" lon="-7.037997"><ele>293.2</ele><time>2015-01-01T13:27:40Z</time></trkpt><trkpt lat="39.575458" lon="-7.037825"><ele>292.9</ele><time>2015-01-01T13:28:24Z</time></trkpt><trkpt lat="39.575141" lon="-7.037764"><ele>294.1</ele><time>2015-01-01T13:29:09Z</time></trkpt><trkpt lat="39.574897" lon="-7.037711"><ele>296.1</ele><time>2015-01-01T13:29:53Z</time></trkpt><trkpt lat="39.574319" lon="-7.037621"><ele>294.7</ele><time>2015-01-01T13:30:38Z</time></trkpt><trkpt lat="39.573656" lon="-7.037513"><ele>290.2</ele><time>2015-01-01T13:31:22Z</time></trkpt><trkpt lat="39.573444" lon="-7.037419"><ele>289.7</ele><time>2015-01-01T13:32:07Z</time></trkpt><trkpt lat="39.573012" lon="-7.037494"><ele>289.1</ele><time>2015-01-01T13:32:51Z</time></trkpt><trkpt lat="39.572584" lon="-7.037548"><ele>290.6</ele><time>2015-01-01T13:33:36Z</time></trkpt><trkpt lat="39.571876" lon="-7.036993"><ele>285.3</ele><time>2015-01-01T13:34:20Z</time></trkpt><trkpt lat="39.571418" lon="-7.037085"><ele>283.7</ele><time>2015-01-01T13:35:05Z</time></trkpt><trkpt lat="39.570973" lon="-7.037253"><ele>282.9</ele><time>2015-01-01T13:35:49Z</time></trkpt><trkpt lat="39.570664" lon="-7.037133"><ele>283.6</ele><time>2015-01-01T13:36:34Z</time></trkpt><trkpt lat="39.570439" lon="-7.037128"><ele>283.0</ele><time>2015-01-01T13:37:18Z</time></trkpt><trkpt lat="39.570256" lon="-7.036958"><ele>281.8</ele><time>2015-01-01T13:38:03Z</time></trkpt><trkpt lat="39.570125" lon="-7.036823"><ele>279.7</ele><time>2015-01-01T13:38:47Z</time></trkpt><trkpt lat="39.569747" lon="-7.036822"><ele>276.2</ele><time>2015-01-01T13:39:32Z</time></trkpt><trkpt lat="39.569319" lon="-7.036575"><ele>273.4</ele><time>2015-01-01T13:40:16Z</time></trkpt><trkpt lat="39.568930" lon="-7.036152"><ele>269.3</ele><time>2015-01-01T13:41:01Z</time></trkpt><trkpt lat="39.568825" lon="-7.036104"><ele>268.9</ele><time>2015-01-01T13:41:45Z</time></trkpt><trkpt lat="39.568654" lon="-7.036104"><ele>269.0</ele><time>2015-01-01T13:42:30Z</time></trkpt><trkpt lat="39.568541" lon="-7.036241"><ele>268.7</ele><time>2015-01-01T13:43:14Z</time></trkpt><trkpt lat="39.568317" lon="-7.036341"><ele>268.3</ele><time>2015-01-01T13:43:59Z</time></trkpt><trkpt lat="39.567857" lon="-7.036424"><ele>266.8</ele><time>2015-01-01T13:44:43Z</time></trkpt><trkpt lat="39.567598" lon="-7.036437"><ele>266.3</ele><time>2015-01-01T13:45:28Z</time></trkpt><trkpt lat="39.567431" lon="-7.036304"><ele>265.7</ele><time>2015-01-01T13:46:12Z</time></trkpt><trkpt lat="39.567173" lon="-7.036235"><ele>263.5</ele><time>2015-01-01T13:46:57Z</time></trkpt><trkpt lat="39.565998" lon="-7.036139"><ele>253.4</ele><time>2015-01-01T13:47:41Z</time></trkpt><trkpt lat="39.565912" lon="-7.036240"><ele>252.4</ele><time>2015-01-01T13:48:26Z</time></trkpt><trkpt lat="39.565880" lon="-7.036730"><ele>248.5</ele><time>2015-01-01T13:49:10Z</time></trkpt><trkpt lat="39.565927" lon="-7.037041"><ele>245.1</ele><time>2015-01-01T13:49:55Z</time></trkpt><trkpt lat="39.565875" lon="-7.037282"><ele>241.9</ele><time>2015-01-01T13:50:39Z</time></trkpt><trkpt lat="39.565774" lon="-7.037448"><ele>239.9</ele><time>2015-01-01T13:51:24Z</time></trkpt><trkpt lat="39.565532" lon="-7.037555"><ele>237.7</ele><time>2015-01-01T13:52:08Z</time></trkpt><trkpt lat="39.564985" lon="-7.037547"><ele>236.8</ele><time>2015-01-01T13:52:53Z</time></trkpt><trkpt lat="39.564832" lon="-7.037590"><ele>236.1</ele><time>2015-01-01T13:53:37Z</time></trkpt><trkpt lat="39.564618" lon="-7.037895"><ele>235.8</ele><time>2015-01-01T13:54:22Z</time></trkpt><trkpt lat="39.564152" lon="-7.038152"><ele>236.3</ele><time>2015-01-01T13:55:06Z</time></trkpt><trkpt lat="39.564009" lon="-7.038243"><ele>236.3</ele><time>2015-01-01T13:55:51Z</time></trkpt><trkpt lat="39.563965" lon="-7.038556"><ele>237.1</ele><time>2015-01-01T13:56:35Z</time></trkpt><trkpt lat="39.564278" lon="-7.039174"><ele>242.2</ele><time>2015-01-01T13:57:20Z</time></trkpt><trkpt lat="39.564280" lon="-7.039493"><ele>242.3</ele><time>2015-01-01T13:58:04Z</time></trkpt><trkpt lat="39.564377" lon="-7.039767"><ele>243.9</ele><time>2015-01-01T13:58:49Z</time></trkpt><trkpt lat="39.564916" lon="-7.040485"><ele>256.7</ele><time>2015-01-01T13:59:33Z</time></trkpt><trkpt lat="39.565092" lon="-7.040733"><ele>260.3</ele><time>2015-01-01T14:00:18Z</time></trkpt><trkpt lat="39.565178" lon="-7.040928"><ele>260.5</ele><time>2015-01-01T14:01:02Z</time></trkpt><trkpt lat="39.565068" lon="-7.041666"><ele>264.3</ele><time>2015-01-01T14:01:47Z</time></trkpt><trkpt lat="39.565034" lon="-7.041852"><ele>265.9</ele><time>2015-01-01T14:02:31Z</time></trkpt><trkpt lat="39.564778" lon="-7.042281"><ele>270.5</ele><time>2015-01-01T14:03:16Z</time></trkpt><trkpt lat="39.564703" lon="-7.042804"><ele>273.9</ele><time>2015-01-01T14:04:00Z</time></trkpt><trkpt lat="39.564509" lon="-7.043310"><ele>274.5</ele><time>2015-01-01T14:04:45Z</time></trkpt><trkpt lat="39.564446" lon="-7.043594"><ele>275.9</ele><time>2015-01-01T14:05:29Z</time></trkpt><trkpt lat="39.564295" lon="-7.043703"><ele>276.9</ele><time>2015-01-01T14:06:14Z</time></trkpt><trkpt lat="39.564195" lon="-7.043770"><ele>277.3</ele><time>2015-01-01T14:06:58Z</time></trkpt><trkpt lat="39.563693" lon="-7.044078"><ele>280.9</ele><time>2015-01-01T14:07:43Z</time></trkpt><trkpt lat="39.563138" lon="-7.044362"><ele>284.5</ele><time>2015-01-01T14:08:27Z</time></trkpt><trkpt lat="39.562892" lon="-7.044439"><ele>285.0</ele><time>2015-01-01T14:09:12Z</time></trkpt><trkpt lat="39.562716" lon="-7.044618"><ele>287.2</ele><time>2015-01-01T14:09:56Z</time></trkpt><trkpt lat="39.562290" lon="-7.044568"><ele>287.9</ele><time>2015-01-01T14:10:41Z</time></trkpt><trkpt lat="39.562059" lon="-7.044444"><ele>287.6</ele><time>2015-01-01T14:11:25Z</time></trkpt><trkpt lat="39.561205" lon="-7.044547"><ele>292.0</ele><time>2015-01-01T14:12:10Z</time></trkpt><trkpt lat="39.560086" lon="-7.044291"><ele>289.6</ele><time>2015-01-01T14:12:54Z</time></trkpt><trkpt lat="39.559764" lon="-7.044325"><ele>288.1</ele><time>2015-01-01T14:13:39Z</time></trkpt><trkpt lat="39.559343" lon="-7.044573"><ele>286.8</ele><time>2015-01-01T14:14:23Z</time></trkpt><trkpt lat="39.559150" lon="-7.044759"><ele>287.3</ele><time>2015-01-01T14:15:08Z</time></trkpt><trkpt lat="39.558938" lon="-7.044747"><ele>288.8</ele><time>2015-01-01T14:15:52Z</time></trkpt><trkpt lat="39.558723" lon="-7.044550"><ele>288.8</ele><time>2015-01-01T14:16:37Z</time></trkpt><trkpt lat="39.558246" lon="-7.044313"><ele>290.2</ele><time>2015-01-01T14:17:21Z</time></trkpt><trkpt lat="39.557868" lon="-7.044212"><ele>291.8</ele><time>2015-01-01T14:18:06Z</time></trkpt><trkpt lat="39.557567" lon="-7.044264"><ele>292.4</ele><time>2015-01-01T14:18:50Z</time></trkpt><trkpt lat="39.557187" lon="-7.044629"><ele>293.7</ele><time>2015-01-01T14:19:35Z</time></trkpt><trkpt lat="39.556509" lon="-7.045063"><ele>294.9</ele><time>2015-01-01T14:20:19Z</time></trkpt><trkpt lat="39.556171" lon="-7.045212"><ele>294.7</ele><time>2015-01-01T14:21:04Z</time></trkpt><trkpt lat="39.555937" lon="-7.045231"><ele>295.2</ele><time>2015-01-01T14:21:48Z</time></trkpt><trkpt lat="39.555716" lon="-7.045178"><ele>295.9</ele><time>2015-01-01T14:22:33Z</time></trkpt><trkpt lat="39.555613" lon="-7.044986"><ele>295.3</ele><time>2015-01-01T14:23:17Z</time></trkpt><trkpt lat="39.555234" lon="-7.044689"><ele>296.1</ele><time>2015-01-01T14:24:02Z</time></trkpt><trkpt lat="39.554937" lon="-7.044323"><ele>295.2</ele><time>2015-01-01T14:24:46Z</time></trkpt><trkpt lat="39.554790" lon="-7.044241"><ele>296.5</ele><time>2015-01-01T14:25:31Z</time></trkpt><trkpt lat="39.554435" lon="-7.044345"><ele>300.6</ele><time>2015-01-01T14:26:15Z</time></trkpt><trkpt lat="39.554113" lon="-7.044587"><ele>301.6</ele><time>2015-01-01T14:27:00Z</time></trkpt><trkpt lat="39.553344" lon="-7.044589"><ele>305.0</ele><time>2015-01-01T14:27:44Z</time></trkpt><trkpt lat="39.552927" lon="-7.044961"><ele>305.3</ele><time>2015-01-01T14:28:29Z</time></trkpt><trkpt lat="39.552830" lon="-7.044991"><ele>305.1</ele><time>2015-01-01T14:29:13Z</time></trkpt><trkpt lat="39.552560" lon="-7.044939"><ele>302.4</ele><time>2015-01-01T14:29:58Z</time></trkpt><trkpt lat="39.552304" lon="-7.045113"><ele>301.8</ele><time>2015-01-01T14:30:42Z</time></trkpt><trkpt lat="39.552138" lon="-7.045362"><ele>302.3</ele><time>2015-01-01T14:31:27Z</time></trkpt><trkpt lat="39.551905" lon="-7.045591"><ele>303.3</ele><time>2015-01-01T14:32:11Z</time></trkpt><trkpt lat="39.551643" lon="-7.045636"><ele>303.9</ele><time>2015-01-01T14:32:56Z</time></trkpt><trkpt lat="39.551339" lon="-7.045589"><ele>303.2</ele><time>2015-01-01T14:33:40Z</time></trkpt><trkpt lat="39.551246" lon="-7.045696"><ele>303.5</ele><time>2015-01-01T14:34:25Z</time></trkpt><trkpt lat="39.551015" lon="-7.045845"><ele>304.3</ele><time>2015-01-01T14:35:09Z</time></trkpt><trkpt lat="39.550823" lon="-7.045976"><ele>305.0</ele><time>2015-01-01T14:35:54Z</time></trkpt><trkpt lat="39.550587" lon="-7.046111"><ele>305.0</ele><time>2015-01-01T14:36:38Z</time></trkpt><trkpt lat="39.550224" lon="-7.046391"><ele>306.4</ele><time>2015-01-01T14:37:23Z</time></trkpt><trkpt lat="39.549604" lon="-7.046870"><ele>309.4</ele><time>2015-01-01T14:38:07Z</time></trkpt><trkpt lat="39.549327" lon="-7.047013"><ele>310.4</ele><time>2015-01-01T14:38:52Z</time></trkpt><trkpt lat="39.548624" lon="-7.047046"><ele>312.3</ele><time>2015-01-01T14:39:36Z</time></trkpt><trkpt lat="39.548378" lon="-7.046970"><ele>313.8</ele><time>2015-01-01T14:40:21Z</time></trkpt><trkpt lat="39.548073" lon="-7.047022"><ele>316.8</ele><time>2015-01-01T14:41:05Z</time></trkpt><trkpt lat="39.547848" lon="-7.047037"><ele>318.5</ele><time>2015-01-01T14:41:50Z</time></trkpt><trkpt lat="39.547504" lon="-7.047093"><ele>320.0</ele><time>2015-01-01T14:42:34Z</time></trkpt><trkpt lat="39.547168" lon="-7.047347"><ele>321.8</ele><time>2015-01-01T14:43:19Z</time></trkpt><trkpt lat="39.547105" lon="-7.047384"><ele>322.4</ele><time>2015-01-01T14:44:03Z</time></trkpt><trkpt lat="39.546518" lon="-7.047519"><ele>326.5</ele><time>2015-01-01T14:44:48Z</time></trkpt><trkpt lat="39.546456" lon="-7.047582"><ele>326.8</ele><time>2015-01-01T14:45:32Z</time></trkpt><trkpt lat="39.544769" lon="-7.048229"><ele>325.7</ele><time>2015-01-01T14:46:17Z</time></trkpt><trkpt lat="39.544626" lon="-7.048310"><ele>326.3</ele><time>2015-01-01T14:47:01Z</time></trkpt><trkpt lat="39.544531" lon="-7.048426"><ele>326.7</ele><time>2015-01-01T14:47:46Z</time></trkpt><trkpt lat="39.543851" lon="-7.048996"><ele>324.1</ele><time>2015-01-01T14:48:30Z</time></trkpt><trkpt lat="39.543503" lon="-7.049511"><ele>323.3</ele><time>2015-01-01T14:49:15Z</time></trkpt><trkpt lat="39.543289" lon="-7.049713"><ele>323.0</ele><time>2015-01-01T14:49:59Z</time></trkpt><trkpt lat="39.542993" lon="-7.049841"><ele>322.5</ele><time>2015-01-01T14:50:44Z</time></trkpt><trkpt lat="39.542665" lon="-7.049990"><ele>320.7</ele><time>2015-01-01T14:51:28Z</time></trkpt><trkpt lat="39.542227" lon="-7.050188"><ele>321.0</ele><time>2015-01-01T14:52:13Z</time></trkpt><trkpt lat="39.541788" lon="-7.050414"><ele>322.8</ele><time>2015-01-01T14:52:57Z</time></trkpt><trkpt lat="39.541356" lon="-7.050524"><ele>323.2</ele><time>2015-01-01T14:53:42Z</time></trkpt><trkpt lat="39.540957" lon="-7.050923"><ele>324.6</ele><time>2015-01-01T14:54:26Z</time></trkpt><trkpt lat="39.539592" lon="-7.051597"><ele>328.7</ele><time>2015-01-01T14:55:11Z</time></trkpt><trkpt lat="39.539289" lon="-7.051768"><ele>329.4</ele><time>2015-01-01T14:55:55Z</time></trkpt><trkpt lat="39.538970" lon="-7.051923"><ele>330.1</ele><time>2015-01-01T14:56:40Z</time></trkpt><trkpt lat="39.538400" lon="-7.052224"><ele>329.8</ele><time>2015-01-01T14:57:24Z</time></trkpt><trkpt lat="39.538151" lon="-7.052465"><ele>330.6</ele><time>2015-01-01T14:58:09Z</time></trkpt><trkpt lat="39.537692" lon="-7.052873"><ele>330.9</ele><time>2015-01-01T14:58:53Z</time></trkpt><trkpt lat="39.537514" lon="-7.052948"><ele>330.8</ele><time>2015-01-01T14:59:38Z</time></trkpt><trkpt lat="39.536955" lon="-7.053070"><ele>329.0</ele><time>2015-01-01T15:00:22Z</time></trkpt><trkpt lat="39.536600" lon="-7.053060"><ele>328.3</ele><time>2015-01-01T15:01:07Z</time></trkpt><trkpt lat="39.536474" lon="-7.052998"><ele>327.3</ele><time>2015-01-01T15:01:51Z</time></trkpt><trkpt lat="39.536258" lon="-7.052977"><ele>325.6</ele><time>2015-01-01T15:02:36Z</time></trkpt><trkpt lat="39.535804" lon="-7.053104"><ele>322.4</ele><time>2015-01-01T15:03:20Z</time></trkpt><trkpt lat="39.535416" lon="-7.053254"><ele>319.4</ele><time>2015-01-01T15:04:05Z</time></trkpt><trkpt lat="39.534926" lon="-7.053351"><ele>321.5</ele><time>2015-01-01T15:04:49Z</time></trkpt><trkpt lat="39.534630" lon="-7.053464"><ele>323.5</ele><time>2015-01-01T15:05:34Z</time></trkpt><trkpt lat="39.534404" lon="-7.053537"><ele>324.2</ele><time>2015-01-01T15:06:18Z</time></trkpt><trkpt lat="39.534102" lon="-7.053622"><ele>324.0</ele><time>2015-01-01T15:07:03Z</time></trkpt><trkpt lat="39.533539" lon="-7.053688"><ele>326.2</ele><time>2015-01-01T15:07:47Z</time></trkpt><trkpt lat="39.533179" lon="-7.053667"><ele>326.8</ele><time>2015-01-01T15:08:32Z</time></trkpt><trkpt lat="39.532780" lon="-7.053751"><ele>327.0</ele><time>2015-01-01T15:09:16Z</time></trkpt><trkpt lat="39.532109" lon="-7.053985"><ele>327.0</ele><time>2015-01-01T15:10:01Z</time></trkpt><trkpt lat="39.531484" lon="-7.054034"><ele>326.8</ele><time>2015-01-01T15:10:45Z</time></trkpt><trkpt lat="39.531098" lon="-7.054141"><ele>326.1</ele><time>2015-01-01T15:11:30Z</time></trkpt><trkpt lat="39.530782" lon="-7.054071"><ele>326.3</ele><time>2015-01-01T15:12:14Z</time></trkpt><trkpt lat="39.530663" lon="-7.053947"><ele>326.3</ele><time>2015-01-01T15:12:59Z</time></trkpt><trkpt lat="39.530257" lon="-7.053792"><ele>326.0</ele><time>2015-01-01T15:13:43Z</time></trkpt><trkpt lat="39.529995" lon="-7.053896"><ele>326.0</ele><time>2015-01-01T15:14:28Z</time></trkpt><trkpt lat="39.529619" lon="-7.053871"><ele>327.8</ele><time>2015-01-01T15:15:12Z</time></trkpt><trkpt lat="39.529411" lon="-7.053828"><ele>329.2</ele><time>2015-01-01T15:15:57Z</time></trkpt><trkpt lat="39.529231" lon="-7.053876"><ele>330.5</ele><time>2015-01-01T15:16:41Z</time></trkpt><trkpt lat="39.528880" lon="-7.053703"><ele>332.7</ele><time>2015-01-01T15:17:26Z</time></trkpt><trkpt lat="39.527901" lon="-7.054085"><ele>335.9</ele><time>2015-01-01T15:18:10Z</time></trkpt><trkpt lat="39.527630" lon="-7.053648"><ele>338.5</ele><time>2015-01-01T15:18:55Z</time></trkpt><trkpt lat="39.527572" lon="-7.053655"><ele>338.5</ele><time>2015-01-01T15:19:39Z</time></trkpt></trkseg></trk></gpx>